sensor_id;sensor_type;location;lat;lon;timestamp;temperature;humidity
16700;DHT22;8466;52.286;21.124;2024-02-15T00:01:55;5.50;99.90
16700;DHT22;8466;52.286;21.124;2024-02-15T00:04:24;5.60;99.90
16700;DHT22;8466;52.286;21.124;2024-02-15T00:06:53;5.50;99.90
16700;DHT22;8466;52.286;21.124;2024-02-15T00:09:21;5.50;99.90
16700;DHT22;8466;52.286;21.124;2024-02-15T00:11:50;5.50;99.90
16700;DHT22;8466;52.286;21.124;2024-02-15T00:14:21;5.50;99.90
16700;DHT22;8466;52.286;21.124;2024-02-15T00:16:51;5.50;99.90
16700;DHT22;8466;52.286;21.124;2024-02-15T00:19:20;5.50;99.90
16700;DHT22;8466;52.286;21.124;2024-02-15T00:21:49;5.40;99.90
16700;DHT22;8466;52.286;21.124;2024-02-15T00:24:17;5.40;99.90
16700;DHT22;8466;52.286;21.124;2024-02-15T00:26:46;5.50;99.90
16700;DHT22;8466;52.286;21.124;2024-02-15T00:29:15;5.50;99.90
16700;DHT22;8466;52.286;21.124;2024-02-15T00:31:44;5.50;99.90
16700;DHT22;8466;52.286;21.124;2024-02-15T00:34:14;5.50;99.90
16700;DHT22;8466;52.286;21.124;2024-02-15T00:36:44;5.50;99.90
16700;DHT22;8466;52.286;21.124;2024-02-15T00:39:13;5.50;99.90
16700;DHT22;8466;52.286;21.124;2024-02-15T00:41:45;5.40;99.90
16700;DHT22;8466;52.286;21.124;2024-02-15T00:44:14;5.40;99.90
16700;DHT22;8466;52.286;21.124;2024-02-15T00:46:43;5.40;99.90
16700;DHT22;8466;52.286;21.124;2024-02-15T00:49:12;5.50;99.90
16700;DHT22;8466;52.286;21.124;2024-02-15T00:51:42;5.50;99.90
16700;DHT22;8466;52.286;21.124;2024-02-15T00:54:11;5.50;99.90
16700;DHT22;8466;52.286;21.124;2024-02-15T00:56:40;5.60;99.90
16700;DHT22;8466;52.286;21.124;2024-02-15T00:59:08;5.50;99.90
16700;DHT22;8466;52.286;21.124;2024-02-15T01:01:37;5.40;99.90
16700;DHT22;8466;52.286;21.124;2024-02-15T01:04:06;5.40;99.90
16700;DHT22;8466;52.286;21.124;2024-02-15T01:06:35;5.40;99.90
16700;DHT22;8466;52.286;21.124;2024-02-15T01:09:05;5.40;99.90
16700;DHT22;8466;52.286;21.124;2024-02-15T01:11:36;5.40;99.90
16700;DHT22;8466;52.286;21.124;2024-02-15T01:14:05;5.40;99.90
16700;DHT22;8466;52.286;21.124;2024-02-15T01:16:37;5.40;99.90
16700;DHT22;8466;52.286;21.124;2024-02-15T01:19:05;5.40;99.90
16700;DHT22;8466;52.286;21.124;2024-02-15T01:21:34;5.40;99.90
16700;DHT22;8466;52.286;21.124;2024-02-15T01:24:05;5.40;99.90
16700;DHT22;8466;52.286;21.124;2024-02-15T01:26:34;5.40;99.90
16700;DHT22;8466;52.286;21.124;2024-02-15T01:29:03;5.30;99.90
16700;DHT22;8466;52.286;21.124;2024-02-15T01:31:32;5.40;99.90
16700;DHT22;8466;52.286;21.124;2024-02-15T01:34:01;5.30;99.90
16700;DHT22;8466;52.286;21.124;2024-02-15T01:36:30;5.30;99.90
16700;DHT22;8466;52.286;21.124;2024-02-15T01:38:59;5.40;99.90
16700;DHT22;8466;52.286;21.124;2024-02-15T01:41:29;5.40;99.90
16700;DHT22;8466;52.286;21.124;2024-02-15T01:43:58;5.40;99.90
16700;DHT22;8466;52.286;21.124;2024-02-15T01:46:28;5.30;99.90
16700;DHT22;8466;52.286;21.124;2024-02-15T01:48:58;5.40;99.90
16700;DHT22;8466;52.286;21.124;2024-02-15T01:51:28;5.30;99.90
16700;DHT22;8466;52.286;21.124;2024-02-15T01:53:57;5.30;99.90
16700;DHT22;8466;52.286;21.124;2024-02-15T01:56:29;5.40;99.90
16700;DHT22;8466;52.286;21.124;2024-02-15T01:58:58;5.40;99.90
16700;DHT22;8466;52.286;21.124;2024-02-15T02:01:28;5.40;99.90
16700;DHT22;8466;52.286;21.124;2024-02-15T02:04:00;5.40;99.90
16700;DHT22;8466;52.286;21.124;2024-02-15T02:06:30;5.40;99.90
16700;DHT22;8466;52.286;21.124;2024-02-15T02:08:59;5.40;99.90
16700;DHT22;8466;52.286;21.124;2024-02-15T02:11:30;5.40;99.90
16700;DHT22;8466;52.286;21.124;2024-02-15T02:14:00;5.40;99.90
16700;DHT22;8466;52.286;21.124;2024-02-15T02:16:29;5.40;99.90
16700;DHT22;8466;52.286;21.124;2024-02-15T02:18:59;5.30;99.90
16700;DHT22;8466;52.286;21.124;2024-02-15T02:21:28;5.30;99.90
16700;DHT22;8466;52.286;21.124;2024-02-15T02:23:58;5.30;99.90
16700;DHT22;8466;52.286;21.124;2024-02-15T02:26:29;5.30;99.90
16700;DHT22;8466;52.286;21.124;2024-02-15T02:28:59;5.30;99.90
16700;DHT22;8466;52.286;21.124;2024-02-15T02:31:33;5.30;99.90
16700;DHT22;8466;52.286;21.124;2024-02-15T02:34:02;5.30;99.90
16700;DHT22;8466;52.286;21.124;2024-02-15T02:36:34;5.30;99.90
16700;DHT22;8466;52.286;21.124;2024-02-15T02:39:03;5.30;99.90
16700;DHT22;8466;52.286;21.124;2024-02-15T02:41:33;5.30;99.90
16700;DHT22;8466;52.286;21.124;2024-02-15T02:44:02;5.40;99.90
16700;DHT22;8466;52.286;21.124;2024-02-15T02:46:31;5.30;99.90
16700;DHT22;8466;52.286;21.124;2024-02-15T02:49:00;5.20;99.90
16700;DHT22;8466;52.286;21.124;2024-02-15T02:51:29;5.30;99.90
16700;DHT22;8466;52.286;21.124;2024-02-15T02:53:58;5.30;99.90
16700;DHT22;8466;52.286;21.124;2024-02-15T02:56:26;5.30;99.90
16700;DHT22;8466;52.286;21.124;2024-02-15T02:58:57;5.30;99.90
16700;DHT22;8466;52.286;21.124;2024-02-15T03:01:26;5.30;99.90
16700;DHT22;8466;52.286;21.124;2024-02-15T03:03:55;5.30;99.90
16700;DHT22;8466;52.286;21.124;2024-02-15T03:06:25;5.30;99.90
16700;DHT22;8466;52.286;21.124;2024-02-15T03:08:54;5.20;99.90
16700;DHT22;8466;52.286;21.124;2024-02-15T03:11:23;5.20;99.90
16700;DHT22;8466;52.286;21.124;2024-02-15T03:13:51;5.30;99.90
16700;DHT22;8466;52.286;21.124;2024-02-15T03:16:23;5.20;99.90
16700;DHT22;8466;52.286;21.124;2024-02-15T03:18:52;5.20;99.90
16700;DHT22;8466;52.286;21.124;2024-02-15T03:21:21;5.20;99.90
16700;DHT22;8466;52.286;21.124;2024-02-15T03:23:49;5.20;99.90
16700;DHT22;8466;52.286;21.124;2024-02-15T03:26:28;5.30;99.90
16700;DHT22;8466;52.286;21.124;2024-02-15T03:28:57;5.30;99.90
16700;DHT22;8466;52.286;21.124;2024-02-15T03:31:27;5.30;99.90
16700;DHT22;8466;52.286;21.124;2024-02-15T03:33:57;5.40;99.90
16700;DHT22;8466;52.286;21.124;2024-02-15T03:36:26;5.30;99.90
16700;DHT22;8466;52.286;21.124;2024-02-15T03:38:56;5.30;99.90
16700;DHT22;8466;52.286;21.124;2024-02-15T03:41:27;5.30;99.90
16700;DHT22;8466;52.286;21.124;2024-02-15T03:44:00;5.30;99.90
16700;DHT22;8466;52.286;21.124;2024-02-15T03:46:32;5.30;99.90
16700;DHT22;8466;52.286;21.124;2024-02-15T03:49:00;5.20;99.90
16700;DHT22;8466;52.286;21.124;2024-02-15T03:51:29;5.20;99.90
16700;DHT22;8466;52.286;21.124;2024-02-15T03:53:59;5.20;99.90
16700;DHT22;8466;52.286;21.124;2024-02-15T03:56:28;5.20;99.90
16700;DHT22;8466;52.286;21.124;2024-02-15T03:58:58;5.20;99.90
16700;DHT22;8466;52.286;21.124;2024-02-15T04:01:33;5.20;99.90
16700;DHT22;8466;52.286;21.124;2024-02-15T04:04:01;5.20;99.90
16700;DHT22;8466;52.286;21.124;2024-02-15T04:06:31;5.20;99.90
16700;DHT22;8466;52.286;21.124;2024-02-15T04:09:01;5.20;99.90
16700;DHT22;8466;52.286;21.124;2024-02-15T04:11:29;5.20;99.90
16700;DHT22;8466;52.286;21.124;2024-02-15T04:13:59;5.20;99.90
16700;DHT22;8466;52.286;21.124;2024-02-15T04:16:28;5.20;99.90
16700;DHT22;8466;52.286;21.124;2024-02-15T04:18:59;5.30;99.90
16700;DHT22;8466;52.286;21.124;2024-02-15T04:21:28;5.30;99.90
16700;DHT22;8466;52.286;21.124;2024-02-15T04:23:57;5.20;99.90
16700;DHT22;8466;52.286;21.124;2024-02-15T04:26:26;5.20;99.90
16700;DHT22;8466;52.286;21.124;2024-02-15T04:28:57;5.10;99.90
16700;DHT22;8466;52.286;21.124;2024-02-15T04:31:25;5.10;99.90
16700;DHT22;8466;52.286;21.124;2024-02-15T04:33:54;5.10;99.90
16700;DHT22;8466;52.286;21.124;2024-02-15T04:36:25;5.10;99.90
16700;DHT22;8466;52.286;21.124;2024-02-15T04:38:55;5.00;99.90
16700;DHT22;8466;52.286;21.124;2024-02-15T04:41:23;5.10;99.90
16700;DHT22;8466;52.286;21.124;2024-02-15T04:43:52;5.10;99.90
16700;DHT22;8466;52.286;21.124;2024-02-15T04:46:22;5.10;99.90
16700;DHT22;8466;52.286;21.124;2024-02-15T04:48:51;5.10;99.90
16700;DHT22;8466;52.286;21.124;2024-02-15T04:51:20;5.10;99.90
16700;DHT22;8466;52.286;21.124;2024-02-15T04:53:51;5.20;99.90
16700;DHT22;8466;52.286;21.124;2024-02-15T04:56:19;5.20;99.90
16700;DHT22;8466;52.286;21.124;2024-02-15T04:58:48;5.30;99.90
16700;DHT22;8466;52.286;21.124;2024-02-15T05:01:18;5.30;99.90
16700;DHT22;8466;52.286;21.124;2024-02-15T05:03:47;5.40;99.90
16700;DHT22;8466;52.286;21.124;2024-02-15T05:06:16;5.30;99.90
16700;DHT22;8466;52.286;21.124;2024-02-15T05:08:44;5.30;99.90
16700;DHT22;8466;52.286;21.124;2024-02-15T05:11:16;5.30;99.90
16700;DHT22;8466;52.286;21.124;2024-02-15T05:13:47;5.30;99.90
16700;DHT22;8466;52.286;21.124;2024-02-15T05:16:18;5.40;99.90
16700;DHT22;8466;52.286;21.124;2024-02-15T05:18:47;5.30;99.90
16700;DHT22;8466;52.286;21.124;2024-02-15T05:21:16;5.30;99.90
16700;DHT22;8466;52.286;21.124;2024-02-15T05:23:44;5.30;99.90
16700;DHT22;8466;52.286;21.124;2024-02-15T05:26:15;5.40;99.90
16700;DHT22;8466;52.286;21.124;2024-02-15T05:28:47;5.40;99.90
16700;DHT22;8466;52.286;21.124;2024-02-15T05:31:18;5.30;99.90
16700;DHT22;8466;52.286;21.124;2024-02-15T05:33:48;5.40;99.90
16700;DHT22;8466;52.286;21.124;2024-02-15T05:36:18;5.40;99.90
16700;DHT22;8466;52.286;21.124;2024-02-15T05:38:49;5.40;99.90
16700;DHT22;8466;52.286;21.124;2024-02-15T05:41:19;5.40;99.90
16700;DHT22;8466;52.286;21.124;2024-02-15T05:43:48;5.40;99.90
16700;DHT22;8466;52.286;21.124;2024-02-15T05:46:20;5.40;99.90
16700;DHT22;8466;52.286;21.124;2024-02-15T05:48:50;5.40;99.90
16700;DHT22;8466;52.286;21.124;2024-02-15T05:51:21;5.40;99.90
16700;DHT22;8466;52.286;21.124;2024-02-15T05:53:50;5.40;99.90
16700;DHT22;8466;52.286;21.124;2024-02-15T05:56:23;5.30;99.90
16700;DHT22;8466;52.286;21.124;2024-02-15T05:58:53;5.30;99.90
16700;DHT22;8466;52.286;21.124;2024-02-15T06:01:21;5.30;99.90
16700;DHT22;8466;52.286;21.124;2024-02-15T06:03:51;5.40;99.90
16700;DHT22;8466;52.286;21.124;2024-02-15T06:06:23;5.40;99.90
16700;DHT22;8466;52.286;21.124;2024-02-15T06:08:54;5.40;99.90
16700;DHT22;8466;52.286;21.124;2024-02-15T06:11:28;5.50;99.90
16700;DHT22;8466;52.286;21.124;2024-02-15T06:13:58;5.50;99.90
16700;DHT22;8466;52.286;21.124;2024-02-15T06:16:27;5.60;99.90
16700;DHT22;8466;52.286;21.124;2024-02-15T06:18:55;5.60;99.90
16700;DHT22;8466;52.286;21.124;2024-02-15T06:21:24;5.60;99.90
16700;DHT22;8466;52.286;21.124;2024-02-15T06:23:53;5.70;99.90
16700;DHT22;8466;52.286;21.124;2024-02-15T06:26:22;5.70;99.90
16700;DHT22;8466;52.286;21.124;2024-02-15T06:28:52;5.60;99.90
16700;DHT22;8466;52.286;21.124;2024-02-15T06:31:38;5.60;99.90
16700;DHT22;8466;52.286;21.124;2024-02-15T06:34:24;5.60;99.90
16700;DHT22;8466;52.286;21.124;2024-02-15T06:37:10;5.60;99.90
16700;DHT22;8466;52.286;21.124;2024-02-15T06:40:13;5.70;99.90
16700;DHT22;8466;52.286;21.124;2024-02-15T06:42:42;5.70;99.90
16700;DHT22;8466;52.286;21.124;2024-02-15T06:45:12;5.80;99.90
16700;DHT22;8466;52.286;21.124;2024-02-15T06:47:41;5.80;99.90
16700;DHT22;8466;52.286;21.124;2024-02-15T06:50:11;5.80;99.90
16700;DHT22;8466;52.286;21.124;2024-02-15T06:52:40;5.90;99.90
16700;DHT22;8466;52.286;21.124;2024-02-15T06:55:09;5.90;99.90
16700;DHT22;8466;52.286;21.124;2024-02-15T06:57:39;5.90;99.90
16700;DHT22;8466;52.286;21.124;2024-02-15T07:00:11;5.90;99.90
16700;DHT22;8466;52.286;21.124;2024-02-15T07:02:43;5.90;99.90
16700;DHT22;8466;52.286;21.124;2024-02-15T07:05:12;5.90;99.90
16700;DHT22;8466;52.286;21.124;2024-02-15T07:07:41;5.80;99.90
16700;DHT22;8466;52.286;21.124;2024-02-15T07:10:10;5.80;99.90
16700;DHT22;8466;52.286;21.124;2024-02-15T07:12:40;5.90;99.90
16700;DHT22;8466;52.286;21.124;2024-02-15T07:15:12;5.90;99.90
16700;DHT22;8466;52.286;21.124;2024-02-15T07:17:41;6.00;99.90
16700;DHT22;8466;52.286;21.124;2024-02-15T07:20:11;6.00;99.90
16700;DHT22;8466;52.286;21.124;2024-02-15T07:22:44;6.00;99.90
16700;DHT22;8466;52.286;21.124;2024-02-15T07:25:13;6.10;99.90
16700;DHT22;8466;52.286;21.124;2024-02-15T07:27:42;6.10;99.90
16700;DHT22;8466;52.286;21.124;2024-02-15T07:30:13;6.10;99.90
16700;DHT22;8466;52.286;21.124;2024-02-15T07:32:42;6.10;99.90
16700;DHT22;8466;52.286;21.124;2024-02-15T07:35:11;6.00;99.90
16700;DHT22;8466;52.286;21.124;2024-02-15T07:37:51;6.00;99.90
16700;DHT22;8466;52.286;21.124;2024-02-15T07:40:22;6.00;99.90
16700;DHT22;8466;52.286;21.124;2024-02-15T07:42:56;6.10;99.90
16700;DHT22;8466;52.286;21.124;2024-02-15T07:45:26;6.00;99.90
16700;DHT22;8466;52.286;21.124;2024-02-15T07:47:56;6.10;99.90
16700;DHT22;8466;52.286;21.124;2024-02-15T07:50:25;6.10;99.90
16700;DHT22;8466;52.286;21.124;2024-02-15T07:52:54;6.10;99.90
16700;DHT22;8466;52.286;21.124;2024-02-15T07:55:23;6.20;99.90
16700;DHT22;8466;52.286;21.124;2024-02-15T07:57:52;6.30;99.90
16700;DHT22;8466;52.286;21.124;2024-02-15T08:00:20;6.20;99.90
16700;DHT22;8466;52.286;21.124;2024-02-15T08:02:50;6.20;99.90
16700;DHT22;8466;52.286;21.124;2024-02-15T08:05:20;6.20;99.90
16700;DHT22;8466;52.286;21.124;2024-02-15T08:07:49;6.10;99.90
16700;DHT22;8466;52.286;21.124;2024-02-15T08:10:18;6.20;99.90
16700;DHT22;8466;52.286;21.124;2024-02-15T08:12:47;6.20;99.90
16700;DHT22;8466;52.286;21.124;2024-02-15T08:15:19;6.30;99.90
16700;DHT22;8466;52.286;21.124;2024-02-15T08:17:50;6.40;99.90
16700;DHT22;8466;52.286;21.124;2024-02-15T08:20:18;6.50;99.90
16700;DHT22;8466;52.286;21.124;2024-02-15T08:22:49;6.60;99.90
16700;DHT22;8466;52.286;21.124;2024-02-15T08:25:17;6.60;99.90
16700;DHT22;8466;52.286;21.124;2024-02-15T08:27:47;6.70;99.90
16700;DHT22;8466;52.286;21.124;2024-02-15T08:30:18;6.90;99.90
16700;DHT22;8466;52.286;21.124;2024-02-15T08:32:52;7.00;99.90
16700;DHT22;8466;52.286;21.124;2024-02-15T08:35:22;7.20;99.90
16700;DHT22;8466;52.286;21.124;2024-02-15T08:37:51;7.40;99.90
16700;DHT22;8466;52.286;21.124;2024-02-15T08:40:20;7.60;99.90
16700;DHT22;8466;52.286;21.124;2024-02-15T08:42:53;7.70;99.90
16700;DHT22;8466;52.286;21.124;2024-02-15T08:45:22;7.70;99.90
16700;DHT22;8466;52.286;21.124;2024-02-15T08:47:53;7.70;99.90
16700;DHT22;8466;52.286;21.124;2024-02-15T08:50:22;7.60;99.90
16700;DHT22;8466;52.286;21.124;2024-02-15T08:52:51;7.60;99.90
16700;DHT22;8466;52.286;21.124;2024-02-15T08:55:20;7.60;99.90
16700;DHT22;8466;52.286;21.124;2024-02-15T08:57:51;7.50;99.90
16700;DHT22;8466;52.286;21.124;2024-02-15T09:00:21;7.30;99.90
16700;DHT22;8466;52.286;21.124;2024-02-15T09:02:50;7.20;99.90
16700;DHT22;8466;52.286;21.124;2024-02-15T09:05:21;7.10;99.90
16700;DHT22;8466;52.286;21.124;2024-02-15T09:07:50;7.10;99.90
16700;DHT22;8466;52.286;21.124;2024-02-15T09:10:19;7.00;99.90
16700;DHT22;8466;52.286;21.124;2024-02-15T09:12:50;7.00;99.90
16700;DHT22;8466;52.286;21.124;2024-02-15T09:15:18;7.10;99.90
16700;DHT22;8466;52.286;21.124;2024-02-15T09:17:49;7.10;99.90
16700;DHT22;8466;52.286;21.124;2024-02-15T09:20:18;7.10;99.90
16700;DHT22;8466;52.286;21.124;2024-02-15T09:22:49;7.20;99.90
16700;DHT22;8466;52.286;21.124;2024-02-15T09:25:19;7.20;99.90
16700;DHT22;8466;52.286;21.124;2024-02-15T09:27:50;7.20;99.90
16700;DHT22;8466;52.286;21.124;2024-02-15T09:30:21;7.20;99.90
16700;DHT22;8466;52.286;21.124;2024-02-15T09:32:52;7.10;99.90
16700;DHT22;8466;52.286;21.124;2024-02-15T09:35:22;7.10;99.90
16700;DHT22;8466;52.286;21.124;2024-02-15T09:37:52;7.20;99.90
16700;DHT22;8466;52.286;21.124;2024-02-15T09:40:22;7.10;99.90
16700;DHT22;8466;52.286;21.124;2024-02-15T09:42:53;7.10;99.90
16700;DHT22;8466;52.286;21.124;2024-02-15T09:45:22;7.10;99.90
16700;DHT22;8466;52.286;21.124;2024-02-15T09:47:52;7.10;99.90
16700;DHT22;8466;52.286;21.124;2024-02-15T09:50:22;7.10;99.90
16700;DHT22;8466;52.286;21.124;2024-02-15T09:52:54;7.30;99.90
16700;DHT22;8466;52.286;21.124;2024-02-15T09:55:24;7.30;99.90
16700;DHT22;8466;52.286;21.124;2024-02-15T09:57:54;7.50;99.90
16700;DHT22;8466;52.286;21.124;2024-02-15T10:00:23;7.60;99.90
16700;DHT22;8466;52.286;21.124;2024-02-15T10:02:53;7.70;99.90
16700;DHT22;8466;52.286;21.124;2024-02-15T10:05:22;7.70;99.90
16700;DHT22;8466;52.286;21.124;2024-02-15T10:07:52;7.70;99.90
16700;DHT22;8466;52.286;21.124;2024-02-15T10:10:22;7.70;99.90
16700;DHT22;8466;52.286;21.124;2024-02-15T10:12:54;7.70;99.90
16700;DHT22;8466;52.286;21.124;2024-02-15T10:15:30;7.70;99.90
16700;DHT22;8466;52.286;21.124;2024-02-15T10:18:02;7.70;99.90
16700;DHT22;8466;52.286;21.124;2024-02-15T10:20:31;7.80;99.90
16700;DHT22;8466;52.286;21.124;2024-02-15T10:23:11;7.80;99.90
16700;DHT22;8466;52.286;21.124;2024-02-15T10:25:40;7.90;99.90
16700;DHT22;8466;52.286;21.124;2024-02-15T10:28:10;8.00;99.90
16700;DHT22;8466;52.286;21.124;2024-02-15T10:30:41;8.00;99.90
16700;DHT22;8466;52.286;21.124;2024-02-15T10:33:18;8.00;99.90
16700;DHT22;8466;52.286;21.124;2024-02-15T10:35:48;8.00;99.90
16700;DHT22;8466;52.286;21.124;2024-02-15T10:38:18;7.90;99.90
16700;DHT22;8466;52.286;21.124;2024-02-15T10:40:47;7.90;99.90
16700;DHT22;8466;52.286;21.124;2024-02-15T10:43:17;7.90;99.90
16700;DHT22;8466;52.286;21.124;2024-02-15T10:45:47;7.90;99.90
16700;DHT22;8466;52.286;21.124;2024-02-15T10:48:16;7.90;99.90
16700;DHT22;8466;52.286;21.124;2024-02-15T10:50:46;7.90;99.90
16700;DHT22;8466;52.286;21.124;2024-02-15T10:53:21;7.90;99.90
16700;DHT22;8466;52.286;21.124;2024-02-15T10:55:56;8.00;99.90
16700;DHT22;8466;52.286;21.124;2024-02-15T10:58:32;8.00;99.90
16700;DHT22;8466;52.286;21.124;2024-02-15T11:01:06;7.90;99.90
16700;DHT22;8466;52.286;21.124;2024-02-15T11:03:42;7.90;99.90
16700;DHT22;8466;52.286;21.124;2024-02-15T11:06:16;7.90;99.90
16700;DHT22;8466;52.286;21.124;2024-02-15T11:08:47;8.00;99.90
16700;DHT22;8466;52.286;21.124;2024-02-15T11:11:17;8.10;99.90
16700;DHT22;8466;52.286;21.124;2024-02-15T11:13:47;8.10;99.90
16700;DHT22;8466;52.286;21.124;2024-02-15T11:16:40;8.20;99.90
16700;DHT22;8466;52.286;21.124;2024-02-15T11:19:08;8.20;99.90
16700;DHT22;8466;52.286;21.124;2024-02-15T11:21:53;8.30;99.90
16700;DHT22;8466;52.286;21.124;2024-02-15T11:24:28;8.50;99.90
16700;DHT22;8466;52.286;21.124;2024-02-15T11:26:58;8.50;99.90
16700;DHT22;8466;52.286;21.124;2024-02-15T11:29:49;8.50;99.90
16700;DHT22;8466;52.286;21.124;2024-02-15T11:32:39;8.50;99.90
16700;DHT22;8466;52.286;21.124;2024-02-15T11:35:13;8.60;99.90
16700;DHT22;8466;52.286;21.124;2024-02-15T11:37:57;8.60;99.90
16700;DHT22;8466;52.286;21.124;2024-02-15T11:41:03;8.80;99.90
16700;DHT22;8466;52.286;21.124;2024-02-15T11:43:49;9.00;99.90
16700;DHT22;8466;52.286;21.124;2024-02-15T11:46:25;9.20;99.90
16700;DHT22;8466;52.286;21.124;2024-02-15T11:48:57;9.30;99.90
16700;DHT22;8466;52.286;21.124;2024-02-15T11:51:30;9.40;99.90
16700;DHT22;8466;52.286;21.124;2024-02-15T11:54:07;9.40;99.90
16700;DHT22;8466;52.286;21.124;2024-02-15T11:56:51;9.50;99.90
16700;DHT22;8466;52.286;21.124;2024-02-15T11:59:22;9.60;99.90
16700;DHT22;8466;52.286;21.124;2024-02-15T12:02:10;9.50;99.90
16700;DHT22;8466;52.286;21.124;2024-02-15T12:04:56;9.60;99.90
16700;DHT22;8466;52.286;21.124;2024-02-15T12:07:57;9.50;99.90
16700;DHT22;8466;52.286;21.124;2024-02-15T12:10:56;9.50;99.90
16700;DHT22;8466;52.286;21.124;2024-02-15T12:13:43;9.50;99.90
16700;DHT22;8466;52.286;21.124;2024-02-15T12:16:35;9.40;99.90
16700;DHT22;8466;52.286;21.124;2024-02-15T12:19:22;9.40;99.90
16700;DHT22;8466;52.286;21.124;2024-02-15T12:21:52;9.30;99.90
16700;DHT22;8466;52.286;21.124;2024-02-15T12:24:21;9.30;99.90
16700;DHT22;8466;52.286;21.124;2024-02-15T12:27:00;9.20;99.90
16700;DHT22;8466;52.286;21.124;2024-02-15T12:29:32;9.20;99.90
16700;DHT22;8466;52.286;21.124;2024-02-15T12:32:03;9.40;99.90
16700;DHT22;8466;52.286;21.124;2024-02-15T12:34:32;9.50;99.90
16700;DHT22;8466;52.286;21.124;2024-02-15T12:37:07;9.70;99.90
16700;DHT22;8466;52.286;21.124;2024-02-15T12:39:37;9.70;99.90
16700;DHT22;8466;52.286;21.124;2024-02-15T12:42:06;9.60;99.90
16700;DHT22;8466;52.286;21.124;2024-02-15T12:44:45;9.60;99.90
16700;DHT22;8466;52.286;21.124;2024-02-15T12:47:18;9.60;99.90
16700;DHT22;8466;52.286;21.124;2024-02-15T12:49:47;9.60;99.90
16700;DHT22;8466;52.286;21.124;2024-02-15T12:52:36;9.70;99.90
16700;DHT22;8466;52.286;21.124;2024-02-15T12:55:08;9.70;99.90
16700;DHT22;8466;52.286;21.124;2024-02-15T12:57:36;9.70;99.90
16700;DHT22;8466;52.286;21.124;2024-02-15T13:00:10;9.50;99.90
16700;DHT22;8466;52.286;21.124;2024-02-15T13:02:41;9.50;99.90
16700;DHT22;8466;52.286;21.124;2024-02-15T13:05:13;9.50;99.90
16700;DHT22;8466;52.286;21.124;2024-02-15T13:07:42;9.50;99.90
16700;DHT22;8466;52.286;21.124;2024-02-15T13:10:11;9.50;99.90
16700;DHT22;8466;52.286;21.124;2024-02-15T13:12:42;9.60;99.90
16700;DHT22;8466;52.286;21.124;2024-02-15T13:15:14;9.60;99.90
16700;DHT22;8466;52.286;21.124;2024-02-15T13:17:45;9.70;99.90
16700;DHT22;8466;52.286;21.124;2024-02-15T13:20:16;9.60;99.90
16700;DHT22;8466;52.286;21.124;2024-02-15T13:22:47;9.60;99.90
16700;DHT22;8466;52.286;21.124;2024-02-15T13:25:16;9.60;99.90
16700;DHT22;8466;52.286;21.124;2024-02-15T13:27:48;9.60;99.90
16700;DHT22;8466;52.286;21.124;2024-02-15T13:30:19;9.70;99.90
16700;DHT22;8466;52.286;21.124;2024-02-15T13:32:51;9.80;99.90
16700;DHT22;8466;52.286;21.124;2024-02-15T13:35:19;9.90;99.90
16700;DHT22;8466;52.286;21.124;2024-02-15T13:37:51;9.90;99.90
16700;DHT22;8466;52.286;21.124;2024-02-15T13:40:21;10.00;99.90
16700;DHT22;8466;52.286;21.124;2024-02-15T13:42:52;10.00;99.90
16700;DHT22;8466;52.286;21.124;2024-02-15T13:45:27;10.00;99.90
16700;DHT22;8466;52.286;21.124;2024-02-15T13:47:58;10.00;99.90
16700;DHT22;8466;52.286;21.124;2024-02-15T13:50:30;10.00;99.90
16700;DHT22;8466;52.286;21.124;2024-02-15T13:52:59;9.90;99.90
16700;DHT22;8466;52.286;21.124;2024-02-15T13:55:29;9.90;99.90
16700;DHT22;8466;52.286;21.124;2024-02-15T13:57:58;9.90;99.90
16700;DHT22;8466;52.286;21.124;2024-02-15T14:00:29;9.90;99.90
16700;DHT22;8466;52.286;21.124;2024-02-15T14:03:02;9.80;99.90
16700;DHT22;8466;52.286;21.124;2024-02-15T14:05:34;9.70;99.90
16700;DHT22;8466;52.286;21.124;2024-02-15T14:08:03;9.70;99.90
16700;DHT22;8466;52.286;21.124;2024-02-15T14:10:33;9.80;99.90
16700;DHT22;8466;52.286;21.124;2024-02-15T14:13:04;10.00;99.90
16700;DHT22;8466;52.286;21.124;2024-02-15T14:15:36;10.10;99.90
16700;DHT22;8466;52.286;21.124;2024-02-15T14:18:07;10.10;99.90
16700;DHT22;8466;52.286;21.124;2024-02-15T14:20:39;10.20;99.90
16700;DHT22;8466;52.286;21.124;2024-02-15T14:23:10;10.10;99.90
16700;DHT22;8466;52.286;21.124;2024-02-15T14:25:42;10.00;99.90
16700;DHT22;8466;52.286;21.124;2024-02-15T14:28:12;10.00;99.90
16700;DHT22;8466;52.286;21.124;2024-02-15T14:30:44;9.90;99.90
16700;DHT22;8466;52.286;21.124;2024-02-15T14:33:30;9.90;99.90
16700;DHT22;8466;52.286;21.124;2024-02-15T14:36:02;9.70;99.90
16700;DHT22;8466;52.286;21.124;2024-02-15T14:38:32;9.70;99.90
16700;DHT22;8466;52.286;21.124;2024-02-15T14:41:02;9.60;99.90
16700;DHT22;8466;52.286;21.124;2024-02-15T14:43:35;9.50;99.90
16700;DHT22;8466;52.286;21.124;2024-02-15T14:46:05;9.50;99.90
16700;DHT22;8466;52.286;21.124;2024-02-15T14:48:35;9.50;99.90
16700;DHT22;8466;52.286;21.124;2024-02-15T14:51:07;9.50;99.90
16700;DHT22;8466;52.286;21.124;2024-02-15T14:53:38;9.40;99.90
16700;DHT22;8466;52.286;21.124;2024-02-15T14:56:06;9.40;99.90
16700;DHT22;8466;52.286;21.124;2024-02-15T14:58:35;9.40;99.90
16700;DHT22;8466;52.286;21.124;2024-02-15T15:01:05;9.30;99.90
16700;DHT22;8466;52.286;21.124;2024-02-15T15:03:37;9.30;99.90
16700;DHT22;8466;52.286;21.124;2024-02-15T15:06:07;9.30;99.90
16700;DHT22;8466;52.286;21.124;2024-02-15T15:08:54;9.20;99.90
16700;DHT22;8466;52.286;21.124;2024-02-15T15:11:43;9.10;99.90
16700;DHT22;8466;52.286;21.124;2024-02-15T15:14:25;9.00;99.90
16700;DHT22;8466;52.286;21.124;2024-02-15T15:16:56;9.00;99.90
16700;DHT22;8466;52.286;21.124;2024-02-15T15:19:28;9.00;99.90
16700;DHT22;8466;52.286;21.124;2024-02-15T15:21:57;8.90;99.90
16700;DHT22;8466;52.286;21.124;2024-02-15T15:24:27;8.90;99.90
16700;DHT22;8466;52.286;21.124;2024-02-15T15:26:56;8.90;99.90
16700;DHT22;8466;52.286;21.124;2024-02-15T15:29:25;8.90;99.90
16700;DHT22;8466;52.286;21.124;2024-02-15T15:31:55;8.80;99.90
16700;DHT22;8466;52.286;21.124;2024-02-15T15:34:24;8.80;99.90
16700;DHT22;8466;52.286;21.124;2024-02-15T15:36:53;8.70;99.90
16700;DHT22;8466;52.286;21.124;2024-02-15T15:39:24;8.80;99.90
16700;DHT22;8466;52.286;21.124;2024-02-15T15:41:54;8.70;99.90
16700;DHT22;8466;52.286;21.124;2024-02-15T15:44:23;8.60;99.90
16700;DHT22;8466;52.286;21.124;2024-02-15T15:46:56;8.50;99.90
16700;DHT22;8466;52.286;21.124;2024-02-15T15:49:25;8.50;99.90
16700;DHT22;8466;52.286;21.124;2024-02-15T15:51:54;8.50;99.90
16700;DHT22;8466;52.286;21.124;2024-02-15T15:54:23;8.60;99.90
16700;DHT22;8466;52.286;21.124;2024-02-15T15:56:51;8.50;99.90
16700;DHT22;8466;52.286;21.124;2024-02-15T15:59:21;8.50;99.90
16700;DHT22;8466;52.286;21.124;2024-02-15T16:01:50;8.60;99.90
16700;DHT22;8466;52.286;21.124;2024-02-15T16:04:21;8.50;99.90
16700;DHT22;8466;52.286;21.124;2024-02-15T16:06:50;8.50;99.90
16700;DHT22;8466;52.286;21.124;2024-02-15T16:09:21;8.40;99.90
16700;DHT22;8466;52.286;21.124;2024-02-15T16:11:50;8.30;99.90